sensor_id;sensor_type;location;lat;lon;timestamp;pressure;altitude;pressure_sealevel;temperature;humidity
48035;BME280;33812;46.480;6.834;2023-06-26T00:01:37;93963.63;;;24.76;40.68
48035;BME280;33812;46.480;6.834;2023-06-26T00:05:40;93966.41;;;24.76;40.53
48035;BME280;33812;46.480;6.834;2023-06-26T00:09:43;93959.28;;;24.75;40.74
48035;BME280;33812;46.480;6.834;2023-06-26T00:13:45;93963.28;;;24.74;40.69
48035;BME280;33812;46.480;6.834;2023-06-26T00:17:47;93961.28;;;24.74;40.69
48035;BME280;33812;46.480;6.834;2023-06-26T00:21:49;93966.06;;;24.74;40.74
48035;BME280;33812;46.480;6.834;2023-06-26T00:25:52;93959.41;;;24.71;40.50
48035;BME280;33812;46.480;6.834;2023-06-26T00:29:54;93967.28;;;24.73;40.62
48035;BME280;33812;46.480;6.834;2023-06-26T00:33:55;93968.84;;;24.74;40.86
48035;BME280;33812;46.480;6.834;2023-06-26T00:37:57;93964.50;;;24.73;40.45
48035;BME280;33812;46.480;6.834;2023-06-26T00:42:00;93967.00;;;24.71;40.33
48035;BME280;33812;46.480;6.834;2023-06-26T00:46:02;93962.66;;;24.70;40.83
48035;BME280;33812;46.480;6.834;2023-06-26T00:50:05;93965.91;;;24.68;40.96
48035;BME280;33812;46.480;6.834;2023-06-26T00:54:07;93966.69;;;24.69;40.79
48035;BME280;33812;46.480;6.834;2023-06-26T00:58:10;93961.56;;;24.67;40.50
48035;BME280;33812;46.480;6.834;2023-06-26T01:02:12;93963.91;;;24.69;40.78
48035;BME280;33812;46.480;6.834;2023-06-26T01:06:22;93963.13;;;24.68;40.54
48035;BME280;33812;46.480;6.834;2023-06-26T01:10:25;93964.34;;;24.67;40.51
48035;BME280;33812;46.480;6.834;2023-06-26T01:14:30;93967.13;;;24.67;40.54
48035;BME280;33812;46.480;6.834;2023-06-26T01:18:33;93958.78;;;24.67;40.70
48035;BME280;33812;46.480;6.834;2023-06-26T01:22:39;93965.56;;;24.66;40.87
48035;BME280;33812;46.480;6.834;2023-06-26T01:26:48;93960.47;;;24.65;40.46
48035;BME280;33812;46.480;6.834;2023-06-26T01:30:51;93969.59;;;24.65;40.72
48035;BME280;33812;46.480;6.834;2023-06-26T01:34:53;93958.94;;;24.63;40.87
48035;BME280;33812;46.480;6.834;2023-06-26T01:38:55;93964.03;;;24.65;40.53
48035;BME280;33812;46.480;6.834;2023-06-26T01:42:58;93963.25;;;24.65;40.49
48035;BME280;33812;46.480;6.834;2023-06-26T01:47:01;93957.69;;;24.65;40.77
48035;BME280;33812;46.480;6.834;2023-06-26T01:51:03;93955.69;;;24.65;40.78
48035;BME280;33812;46.480;6.834;2023-06-26T01:55:12;93950.13;;;24.65;41.03
48035;BME280;33812;46.480;6.834;2023-06-26T01:59:20;93956.91;;;24.64;40.72
48035;BME280;33812;46.480;6.834;2023-06-26T02:03:23;93961.25;;;24.65;40.78
48035;BME280;33812;46.480;6.834;2023-06-26T02:07:25;93968.50;;;24.62;40.65
48035;BME280;33812;46.480;6.834;2023-06-26T02:11:27;93969.28;;;24.63;40.68
48035;BME280;33812;46.480;6.834;2023-06-26T02:15:30;93962.63;;;24.60;40.71
48035;BME280;33812;46.480;6.834;2023-06-26T02:19:32;93953.06;;;24.61;40.87
48035;BME280;33812;46.480;6.834;2023-06-26T02:23:34;93957.06;;;24.60;40.88
48035;BME280;33812;46.480;6.834;2023-06-26T02:27:36;93961.38;;;24.61;40.90
48035;BME280;33812;46.480;6.834;2023-06-26T02:31:39;93960.59;;;24.61;41.03
48035;BME280;33812;46.480;6.834;2023-06-26T02:35:41;93961.38;;;24.61;40.69
48035;BME280;33812;46.480;6.834;2023-06-26T02:39:42;93971.72;;;24.61;41.09
48035;BME280;33812;46.480;6.834;2023-06-26T02:43:44;93961.06;;;24.59;40.88
48035;BME280;33812;46.480;6.834;2023-06-26T02:47:47;93971.41;;;24.59;40.56
48035;BME280;33812;46.480;6.834;2023-06-26T02:51:49;93966.63;;;24.59;40.73
48035;BME280;33812;46.480;6.834;2023-06-26T02:55:51;93969.41;;;24.59;40.90
48035;BME280;33812;46.480;6.834;2023-06-26T02:59:53;93968.63;;;24.59;40.40
48035;BME280;33812;46.480;6.834;2023-06-26T03:03:56;93973.44;;;24.58;41.03
48035;BME280;33812;46.480;6.834;2023-06-26T03:08:01;93967.88;;;24.58;40.77
48035;BME280;33812;46.480;6.834;2023-06-26T03:12:03;93971.84;;;24.57;40.69
48035;BME280;33812;46.480;6.834;2023-06-26T03:16:05;93982.97;;;24.57;40.74
48035;BME280;33812;46.480;6.834;2023-06-26T03:20:09;93982.22;;;24.57;40.89
48035;BME280;33812;46.480;6.834;2023-06-26T03:24:11;93985.00;;;24.57;41.29
48035;BME280;33812;46.480;6.834;2023-06-26T03:28:13;93977.88;;;24.56;41.25
48035;BME280;33812;46.480;6.834;2023-06-26T03:32:14;93985.47;;;24.55;40.93
48035;BME280;33812;46.480;6.834;2023-06-26T03:36:18;93978.34;;;24.54;40.93
48035;BME280;33812;46.480;6.834;2023-06-26T03:40:20;93978.34;;;24.54;41.02
48035;BME280;33812;46.480;6.834;2023-06-26T03:44:22;93987.91;;;24.53;41.35
48035;BME280;33812;46.480;6.834;2023-06-26T03:48:24;93983.88;;;24.54;41.61
48035;BME280;33812;46.480;6.834;2023-06-26T03:52:27;93983.88;;;24.54;41.71
48035;BME280;33812;46.480;6.834;2023-06-26T03:56:31;93983.88;;;24.54;41.40
48035;BME280;33812;46.480;6.834;2023-06-26T04:00:33;93987.91;;;24.53;41.61
48035;BME280;33812;46.480;6.834;2023-06-26T04:04:34;93986.66;;;24.54;41.55
48035;BME280;33812;46.480;6.834;2023-06-26T04:08:37;93989.13;;;24.52;41.46
48035;BME280;33812;46.480;6.834;2023-06-26T04:12:39;93999.03;;;24.53;41.16
48035;BME280;33812;46.480;6.834;2023-06-26T04:16:41;93998.25;;;24.53;41.46
48035;BME280;33812;46.480;6.834;2023-06-26T04:21:04;94008.56;;;24.52;41.43
48035;BME280;33812;46.480;6.834;2023-06-26T04:25:08;94005.47;;;24.50;41.37
48035;BME280;33812;46.480;6.834;2023-06-26T04:29:09;94011.81;;;24.50;41.20
48035;BME280;33812;46.480;6.834;2023-06-26T04:33:11;93997.13;;;24.50;41.11
48035;BME280;33812;46.480;6.834;2023-06-26T04:37:14;94001.47;;;24.51;41.54
48035;BME280;33812;46.480;6.834;2023-06-26T04:41:18;94006.25;;;24.50;41.38
48035;BME280;33812;46.480;6.834;2023-06-26T04:45:20;94008.25;;;24.50;41.65
48035;BME280;33812;46.480;6.834;2023-06-26T04:49:22;94010.13;;;24.53;41.38
48035;BME280;33812;46.480;6.834;2023-06-26T04:53:24;94009.34;;;24.53;41.92
48035;BME280;33812;46.480;6.834;2023-06-26T04:57:28;94005.34;;;24.54;42.20
48035;BME280;33812;46.480;6.834;2023-06-26T05:01:29;94003.34;;;24.54;41.98
48035;BME280;33812;46.480;6.834;2023-06-26T05:05:32;94007.69;;;24.55;41.56
48035;BME280;33812;46.480;6.834;2023-06-26T05:09:34;94010.47;;;24.55;41.93
48035;BME280;33812;46.480;6.834;2023-06-26T05:13:37;94009.22;;;24.56;42.27
48035;BME280;33812;46.480;6.834;2023-06-26T05:17:40;94013.53;;;24.57;42.27
48035;BME280;33812;46.480;6.834;2023-06-26T05:21:42;94012.31;;;24.58;42.17
48035;BME280;33812;46.480;6.834;2023-06-26T05:25:44;94019.41;;;24.59;42.44
48035;BME280;33812;46.480;6.834;2023-06-26T05:29:48;94015.44;;;24.60;42.85
48035;BME280;33812;46.480;6.834;2023-06-26T05:33:52;94018.63;;;24.59;42.50
48035;BME280;33812;46.480;6.834;2023-06-26T05:37:58;94026.97;;;24.59;42.64
48035;BME280;33812;46.480;6.834;2023-06-26T05:42:02;94022.97;;;24.60;42.88
48035;BME280;33812;46.480;6.834;2023-06-26T05:46:08;94025.31;;;24.61;43.05
48035;BME280;33812;46.480;6.834;2023-06-26T05:50:11;94014.66;;;24.60;42.79
48035;BME280;33812;46.480;6.834;2023-06-26T05:54:14;94014.25;;;24.48;41.31
48035;BME280;33812;46.480;6.834;2023-06-26T05:58:16;94010.00;;;24.34;40.87
48035;BME280;33812;46.480;6.834;2023-06-26T06:02:20;94016.34;;;24.35;41.32
48035;BME280;33812;46.480;6.834;2023-06-26T06:06:22;94008.81;;;24.35;41.54
48035;BME280;33812;46.480;6.834;2023-06-26T06:10:24;94010.94;;;24.31;40.71
48035;BME280;33812;46.480;6.834;2023-06-26T06:14:26;94006.94;;;24.32;41.16
48035;BME280;33812;46.480;6.834;2023-06-26T06:18:30;94010.47;;;24.33;41.45
48035;BME280;33812;46.480;6.834;2023-06-26T06:22:31;94012.50;;;24.32;41.40
48035;BME280;33812;46.480;6.834;2023-06-26T06:26:33;94001.38;;;24.32;41.90
48035;BME280;33812;46.480;6.834;2023-06-26T06:30:35;94007.78;;;24.20;42.42
48035;BME280;33812;46.480;6.834;2023-06-26T06:34:38;93998.53;;;24.23;42.93
48035;BME280;33812;46.480;6.834;2023-06-26T06:38:42;93996.72;;;24.29;42.62
48035;BME280;33812;46.480;6.834;2023-06-26T06:42:46;94000.72;;;24.28;42.98
48035;BME280;33812;46.480;6.834;2023-06-26T06:46:48;93998.91;;;24.34;41.49
48035;BME280;33812;46.480;6.834;2023-06-26T06:50:53;93993.34;;;24.34;41.53
48035;BME280;33812;46.480;6.834;2023-06-26T06:54:56;93990.13;;;24.36;41.68
48035;BME280;33812;46.480;6.834;2023-06-26T06:59:00;93992.47;;;24.37;41.45
48035;BME280;33812;46.480;6.834;2023-06-26T07:03:01;93998.78;;;24.38;42.85
48035;BME280;33812;46.480;6.834;2023-06-26T07:07:05;93999.88;;;24.41;43.78
48035;BME280;33812;46.480;6.834;2023-06-26T07:11:07;93998.78;;;24.38;44.26
48035;BME280;33812;46.480;6.834;2023-06-26T07:15:09;93999.56;;;24.38;44.97
48035;BME280;33812;46.480;6.834;2023-06-26T07:19:11;94000.00;;;24.37;46.37
48035;BME280;33812;46.480;6.834;2023-06-26T07:23:15;94004.31;;;24.38;46.69
48035;BME280;33812;46.480;6.834;2023-06-26T07:27:34;94004.03;;;24.36;48.30
48035;BME280;33812;46.480;6.834;2023-06-26T07:31:47;94012.38;;;24.36;48.35
48035;BME280;33812;46.480;6.834;2023-06-26T07:35:49;94004.47;;;24.34;48.01
48035;BME280;33812;46.480;6.834;2023-06-26T07:39:53;94010.34;;;24.36;47.64
48035;BME280;33812;46.480;6.834;2023-06-26T07:43:54;94009.88;;;24.38;47.50
48035;BME280;33812;46.480;6.834;2023-06-26T07:47:56;94011.00;;;24.41;46.53
48035;BME280;33812;46.480;6.834;2023-06-26T07:51:58;94001.88;;;24.40;46.17
48035;BME280;33812;46.480;6.834;2023-06-26T07:56:05;93993.88;;;24.42;46.78
48035;BME280;33812;46.480;6.834;2023-06-26T08:00:08;94001.75;;;24.44;46.15
48035;BME280;33812;46.480;6.834;2023-06-26T08:04:10;94001.75;;;24.44;46.03
48035;BME280;33812;46.480;6.834;2023-06-26T08:08:12;94003.28;;;24.45;46.05
48035;BME280;33812;46.480;6.834;2023-06-26T08:12:15;93998.84;;;24.47;45.79
48035;BME280;33812;46.480;6.834;2023-06-26T08:16:23;93996.84;;;24.48;46.23
48035;BME280;33812;46.480;6.834;2023-06-26T08:20:25;93999.63;;;24.48;46.13
48035;BME280;33812;46.480;6.834;2023-06-26T08:24:29;94003.94;;;24.49;46.01
48035;BME280;33812;46.480;6.834;2023-06-26T08:28:32;93999.91;;;24.50;46.15
48035;BME280;33812;46.480;6.834;2023-06-26T08:32:34;94001.47;;;24.51;46.13
48035;BME280;33812;46.480;6.834;2023-06-26T08:36:37;94003.47;;;24.50;45.55
48035;BME280;33812;46.480;6.834;2023-06-26T08:40:48;94003.47;;;24.50;45.69
48035;BME280;33812;46.480;6.834;2023-06-26T08:44:51;94002.25;;;24.51;45.57
48035;BME280;33812;46.480;6.834;2023-06-26T08:49:00;94003.00;;;24.52;45.58
48035;BME280;33812;46.480;6.834;2023-06-26T08:53:07;94006.13;;;24.54;45.68
48035;BME280;33812;46.480;6.834;2023-06-26T08:57:14;94004.91;;;24.55;46.01
48035;BME280;33812;46.480;6.834;2023-06-26T09:01:20;94006.44;;;24.56;46.31
48035;BME280;33812;46.480;6.834;2023-06-26T09:05:22;94005.97;;;24.58;46.17
48035;BME280;33812;46.480;6.834;2023-06-26T09:09:23;94003.22;;;24.58;46.29
48035;BME280;33812;46.480;6.834;2023-06-26T09:13:26;93999.66;;;24.57;46.28
48035;BME280;33812;46.480;6.834;2023-06-26T09:17:34;94005.19;;;24.57;46.08
48035;BME280;33812;46.480;6.834;2023-06-26T09:21:41;94001.97;;;24.59;46.30
48035;BME280;33812;46.480;6.834;2023-06-26T09:25:47;94009.53;;;24.58;46.23
48035;BME280;33812;46.480;6.834;2023-06-26T09:29:50;94007.53;;;24.59;46.02
48035;BME280;33812;46.480;6.834;2023-06-26T09:33:55;94009.09;;;24.60;46.20
48035;BME280;33812;46.480;6.834;2023-06-26T09:37:59;94012.66;;;24.60;46.16
48035;BME280;33812;46.480;6.834;2023-06-26T09:42:01;94003.06;;;24.61;45.94
48035;BME280;33812;46.480;6.834;2023-06-26T09:46:03;93999.97;;;24.59;45.88
48035;BME280;33812;46.480;6.834;2023-06-26T09:50:21;94003.06;;;24.61;46.30
48035;BME280;33812;46.480;6.834;2023-06-26T09:54:23;93993.50;;;24.62;46.33
48035;BME280;33812;46.480;6.834;2023-06-26T09:58:27;93997.06;;;24.63;45.97
48035;BME280;33812;46.480;6.834;2023-06-26T10:02:29;93997.06;;;24.63;46.39
48035;BME280;33812;46.480;6.834;2023-06-26T10:06:35;93998.59;;;24.64;46.46
48035;BME280;33812;46.480;6.834;2023-06-26T10:10:38;93999.38;;;24.65;46.17
48035;BME280;33812;46.480;6.834;2023-06-26T10:14:41;93997.69;;;24.67;46.68
48035;BME280;33812;46.480;6.834;2023-06-26T10:18:43;94003.25;;;24.67;46.47
48035;BME280;33812;46.480;6.834;2023-06-26T10:22:47;94006.03;;;24.67;46.58
48035;BME280;33812;46.480;6.834;2023-06-26T10:26:52;93999.69;;;24.67;46.46
48035;BME280;33812;46.480;6.834;2023-06-26T10:30:54;94001.25;;;24.68;46.44
48035;BME280;33812;46.480;6.834;2023-06-26T10:34:57;94002.81;;;24.69;46.17
48035;BME280;33812;46.480;6.834;2023-06-26T10:39:04;94003.56;;;24.69;46.77
48035;BME280;33812;46.480;6.834;2023-06-26T10:43:07;93998.00;;;24.69;46.42
48035;BME280;33812;46.480;6.834;2023-06-26T10:47:33;94001.56;;;24.70;46.37
48035;BME280;33812;46.480;6.834;2023-06-26T10:51:36;93998.00;;;24.69;46.81
48035;BME280;33812;46.480;6.834;2023-06-26T10:55:43;94003.13;;;24.71;46.87
48035;BME280;33812;46.480;6.834;2023-06-26T10:59:48;94002.22;;;24.74;46.92
48035;BME280;33812;46.480;6.834;2023-06-26T11:04:01;94000.63;;;24.73;46.86
48035;BME280;33812;46.480;6.834;2023-06-26T11:08:05;94002.97;;;24.74;47.06
48035;BME280;33812;46.480;6.834;2023-06-26T11:12:08;93993.41;;;24.75;46.62
48035;BME280;33812;46.480;6.834;2023-06-26T11:16:11;93998.97;;;24.75;46.99
48035;BME280;33812;46.480;6.834;2023-06-26T11:20:15;93994.19;;;24.76;46.82
48035;BME280;33812;46.480;6.834;2023-06-26T11:24:18;93994.94;;;24.77;46.87
48035;BME280;33812;46.480;6.834;2023-06-26T11:28:22;93990.94;;;24.78;46.88
48035;BME280;33812;46.480;6.834;2023-06-26T11:32:26;93987.38;;;24.77;47.19
48035;BME280;33812;46.480;6.834;2023-06-26T11:36:29;93991.72;;;24.78;47.15
48035;BME280;33812;46.480;6.834;2023-06-26T11:40:32;94000.81;;;24.79;47.11
48035;BME280;33812;46.480;6.834;2023-06-26T11:44:41;93998.81;;;24.79;47.15
48035;BME280;33812;46.480;6.834;2023-06-26T11:48:44;94005.94;;;24.80;47.23
48035;BME280;33812;46.480;6.834;2023-06-26T11:52:53;94000.38;;;24.80;47.13
48035;BME280;33812;46.480;6.834;2023-06-26T11:56:56;94000.38;;;24.80;47.24
48035;BME280;33812;46.480;6.834;2023-06-26T12:01:00;93996.38;;;24.81;47.29
48035;BME280;33812;46.480;6.834;2023-06-26T12:05:02;93986.78;;;24.82;46.86
48035;BME280;33812;46.480;6.834;2023-06-26T12:09:07;93993.13;;;24.83;46.99
48035;BME280;33812;46.480;6.834;2023-06-26T12:13:10;93981.56;;;24.84;47.11
48035;BME280;33812;46.480;6.834;2023-06-26T12:17:13;93989.91;;;24.84;47.05
48035;BME280;33812;46.480;6.834;2023-06-26T12:21:28;93981.56;;;24.84;46.90
48035;BME280;33812;46.480;6.834;2023-06-26T12:25:32;93988.66;;;24.85;46.97
48035;BME280;33812;46.480;6.834;2023-06-26T12:29:34;93988.66;;;24.85;47.39
48035;BME280;33812;46.480;6.834;2023-06-26T12:33:38;93989.44;;;24.86;47.53
48035;BME280;33812;46.480;6.834;2023-06-26T12:37:41;94003.66;;;24.88;47.49
48035;BME280;33812;46.480;6.834;2023-06-26T12:41:46;93990.50;;;24.88;47.79
48035;BME280;33812;46.480;6.834;2023-06-26T12:46:10;93997.16;;;24.91;47.61
48035;BME280;33812;46.480;6.834;2023-06-26T12:50:14;93994.84;;;24.90;47.56
48035;BME280;33812;46.480;6.834;2023-06-26T12:54:17;93992.06;;;24.90;47.86
48035;BME280;33812;46.480;6.834;2023-06-26T12:58:19;93980.06;;;24.93;48.15
48035;BME280;33812;46.480;6.834;2023-06-26T13:02:20;93977.28;;;24.93;48.26
48035;BME280;33812;46.480;6.834;2023-06-26T13:06:24;93974.50;;;24.93;48.40
48035;BME280;33812;46.480;6.834;2023-06-26T13:10:25;93973.25;;;24.94;47.87
48035;BME280;33812;46.480;6.834;2023-06-26T13:14:29;93968.94;;;24.93;47.72
48035;BME280;33812;46.480;6.834;2023-06-26T13:18:32;93964.16;;;24.93;47.91
48035;BME280;33812;46.480;6.834;2023-06-26T13:22:40;93962.91;;;24.94;48.05
48035;BME280;33812;46.480;6.834;2023-06-26T13:26:42;93969.25;;;24.95;48.32
48035;BME280;33812;46.480;6.834;2023-06-26T13:30:44;93968.81;;;24.96;48.71
48035;BME280;33812;46.480;6.834;2023-06-26T13:34:47;93962.78;;;24.98;48.77
48035;BME280;33812;46.480;6.834;2023-06-26T13:38:51;93967.88;;;24.99;48.43
48035;BME280;33812;46.480;6.834;2023-06-26T13:42:55;93960.00;;;24.98;48.38
48035;BME280;33812;46.480;6.834;2023-06-26T13:46:57;93955.97;;;24.99;48.71
48035;BME280;33812;46.480;6.834;2023-06-26T13:50:59;93958.75;;;24.99;48.43
48035;BME280;33812;46.480;6.834;2023-06-26T13:55:04;93939.28;;;24.99;48.39
48035;BME280;33812;46.480;6.834;2023-06-26T13:59:06;93943.63;;;25.00;48.14
48035;BME280;33812;46.480;6.834;2023-06-26T14:03:08;93946.41;;;25.00;48.23
48035;BME280;33812;46.480;6.834;2023-06-26T14:07:10;93936.81;;;25.01;48.51
48035;BME280;33812;46.480;6.834;2023-06-26T14:11:13;93937.63;;;25.02;48.51
48035;BME280;33812;46.480;6.834;2023-06-26T14:15:16;93937.63;;;25.02;47.93
48035;BME280;33812;46.480;6.834;2023-06-26T14:19:18;93935.63;;;25.02;48.30
48035;BME280;33812;46.480;6.834;2023-06-26T14:23:22;93932.84;;;25.02;48.31
48035;BME280;33812;46.480;6.834;2023-06-26T14:27:25;93929.59;;;25.04;47.95
48035;BME280;33812;46.480;6.834;2023-06-26T14:31:27;93923.25;;;25.03;48.05
48035;BME280;33812;46.480;6.834;2023-06-26T14:35:29;93920.78;;;25.05;47.98
48035;BME280;33812;46.480;6.834;2023-06-26T14:39:30;93918.00;;;25.05;48.08
48035;BME280;33812;46.480;6.834;2023-06-26T14:43:33;93920.00;;;25.05;48.18
48035;BME280;33812;46.480;6.834;2023-06-26T14:47:35;93931.44;;;25.07;48.09
48035;BME280;33812;46.480;6.834;2023-06-26T14:51:37;93927.13;;;25.06;48.00
48035;BME280;33812;46.480;6.834;2023-06-26T14:55:40;93923.88;;;25.07;48.02
48035;BME280;33812;46.480;6.834;2023-06-26T14:59:43;93916.00;;;25.06;48.30
48035;BME280;33812;46.480;6.834;2023-06-26T15:03:45;93913.50;;;25.08;48.23
48035;BME280;33812;46.480;6.834;2023-06-26T15:07:47;93907.50;;;25.09;48.37
48035;BME280;33812;46.480;6.834;2023-06-26T15:11:49;93906.28;;;25.10;47.93
48035;BME280;33812;46.480;6.834;2023-06-26T15:15:52;93903.03;;;25.12;48.71
48035;BME280;33812;46.480;6.834;2023-06-26T15:19:54;93907.34;;;25.13;48.37
48035;BME280;33812;46.480;6.834;2023-06-26T15:23:56;93899.31;;;25.15;48.57
48035;BME280;33812;46.480;6.834;2023-06-26T15:27:58;93897.31;;;25.16;49.05
48035;BME280;33812;46.480;6.834;2023-06-26T15:32:01;93900.09;;;25.16;48.90
48035;BME280;33812;46.480;6.834;2023-06-26T15:36:11;93893.00;;;25.15;49.14
48035;BME280;33812;46.480;6.834;2023-06-26T15:40:13;93898.09;;;25.16;49.13
48035;BME280;33812;46.480;6.834;2023-06-26T15:44:14;93896.06;;;25.17;49.46
48035;BME280;33812;46.480;6.834;2023-06-26T15:48:17;93892.53;;;25.16;49.19
48035;BME280;33812;46.480;6.834;2023-06-26T15:52:19;93890.03;;;25.18;49.59
48035;BME280;33812;46.480;6.834;2023-06-26T15:56:21;93885.25;;;25.19;49.44
48035;BME280;33812;46.480;6.834;2023-06-26T16:00:24;93877.22;;;25.21;49.47
48035;BME280;33812;46.480;6.834;2023-06-26T16:04:27;93883.56;;;25.21;49.74
48035;BME280;33812;46.480;6.834;2023-06-26T16:08:31;93875.97;;;25.22;49.80
48035;BME280;33812;46.480;6.834;2023-06-26T16:12:33;93874.00;;;25.22;50.06
48035;BME280;33812;46.480;6.834;2023-06-26T16:16:34;93894.25;;;25.23;50.08
48035;BME280;33812;46.480;6.834;2023-06-26T16:20:37;93881.88;;;25.24;50.26
48035;BME280;33812;46.480;6.834;2023-06-26T16:24:39;93877.88;;;25.25;49.85
48035;BME280;33812;46.480;6.834;2023-06-26T16:28:41;93891.31;;;25.27;49.90
48035;BME280;33812;46.480;6.834;2023-06-26T16:32:43;93901.66;;;25.26;50.24
48035;BME280;33812;46.480;6.834;2023-06-26T16:36:46;93887.44;;;25.24;49.91
48035;BME280;33812;46.480;6.834;2023-06-26T16:40:48;93894.56;;;25.25;50.10
48035;BME280;33812;46.480;6.834;2023-06-26T16:44:50;93900.41;;;25.27;49.83
48035;BME280;33812;46.480;6.834;2023-06-26T16:48:53;93899.66;;;25.27;50.55
48035;BME280;33812;46.480;6.834;2023-06-26T16:52:58;93895.63;;;25.28;50.54
48035;BME280;33812;46.480;6.834;2023-06-26T16:57:00;93908.75;;;25.27;50.69
48035;BME280;33812;46.480;6.834;2023-06-26T17:01:02;93903.97;;;25.28;50.84
48035;BME280;33812;46.480;6.834;2023-06-26T17:05:04;93903.50;;;25.29;50.73
48035;BME280;33812;46.480;6.834;2023-06-26T17:09:07;93910.16;;;25.32;50.70
48035;BME280;33812;46.480;6.834;2023-06-26T17:13:12;93914.94;;;25.31;51.00
48035;BME280;33812;46.480;6.834;2023-06-26T17:17:14;93921.28;;;25.32;50.59
48035;BME280;33812;46.480;6.834;2023-06-26T17:21:18;93920.50;;;25.31;50.87
48035;BME280;33812;46.480;6.834;2023-06-26T17:25:22;93920.81;;;25.33;50.78
48035;BME280;33812;46.480;6.834;2023-06-26T17:29:23;93919.56;;;25.34;50.88
48035;BME280;33812;46.480;6.834;2023-06-26T17:33:25;93923.59;;;25.33;51.34
48035;BME280;33812;46.480;6.834;2023-06-26T17:37:27;93928.22;;;25.37;51.40
48035;BME280;33812;46.480;6.834;2023-06-26T17:41:33;93938.91;;;25.38;51.32
48035;BME280;33812;46.480;6.834;2023-06-26T17:45:34;93944.16;;;25.36;50.13
48035;BME280;33812;46.480;6.834;2023-06-26T17:49:38;93943.06;;;25.33;48.43
48035;BME280;33812;46.480;6.834;2023-06-26T17:53:39;93948.63;;;25.33;47.29
48035;BME280;33812;46.480;6.834;2023-06-26T17:57:43;93956.19;;;25.33;46.84
48035;BME280;33812;46.480;6.834;2023-06-26T18:01:44;93959.75;;;25.33;46.11
48035;BME280;33812;46.480;6.834;2023-06-26T18:05:46;93967.47;;;25.29;45.46
48035;BME280;33812;46.480;6.834;2023-06-26T18:09:48;93971.50;;;25.28;44.32
48035;BME280;33812;46.480;6.834;2023-06-26T18:13:51;93971.50;;;25.28;43.88
48035;BME280;33812;46.480;6.834;2023-06-26T18:17:54;93978.59;;;25.29;43.39
48035;BME280;33812;46.480;6.834;2023-06-26T18:21:56;93977.38;;;25.30;42.98
48035;BME280;33812;46.480;6.834;2023-06-26T18:30:05;93998.06;;;25.29;42.41
48035;BME280;33812;46.480;6.834;2023-06-26T18:34:07;93996.53;;;25.28;42.15
48035;BME280;33812;46.480;6.834;2023-06-26T18:38:08;94005.34;;;25.27;41.26
48035;BME280;33812;46.480;6.834;2023-06-26T18:42:11;94013.69;;;25.27;41.28
48035;BME280;33812;46.480;6.834;2023-06-26T18:46:17;94014.44;;;25.27;41.08
48035;BME280;33812;46.480;6.834;2023-06-26T18:50:18;94020.47;;;25.26;41.25
48035;BME280;33812;46.480;6.834;2023-06-26T18:54:24;94022.50;;;25.25;41.02
48035;BME280;33812;46.480;6.834;2023-06-26T18:58:26;94028.19;;;25.21;40.70
48035;BME280;33812;46.480;6.834;2023-06-26T19:02:29;94022.19;;;25.23;40.88
48035;BME280;33812;46.480;6.834;2023-06-26T19:06:31;94024.19;;;25.22;41.08
48035;BME280;33812;46.480;6.834;2023-06-26T19:10:33;94030.19;;;25.21;41.17
48035;BME280;33812;46.480;6.834;2023-06-26T19:14:35;94028.66;;;25.20;40.86
48035;BME280;33812;46.480;6.834;2023-06-26T19:18:38;94032.97;;;25.21;40.82
48035;BME280;33812;46.480;6.834;2023-06-26T19:22:40;94037.00;;;25.20;40.72
48035;BME280;33812;46.480;6.834;2023-06-26T19:26:42;94045.34;;;25.20;41.17
48035;BME280;33812;46.480;6.834;2023-06-26T19:30:43;94045.03;;;25.18;41.07
48035;BME280;33812;46.480;6.834;2023-06-26T19:34:47;94035.44;;;25.19;41.44
48035;BME280;33812;46.480;6.834;2023-06-26T19:38:48;94038.53;;;25.21;41.41
48035;BME280;33812;46.480;6.834;2023-06-26T19:42:50;94044.09;;;25.21;41.25
48035;BME280;33812;46.480;6.834;2023-06-26T19:46:52;94035.75;;;25.21;40.92
48035;BME280;33812;46.480;6.834;2023-06-26T19:50:55;94043.66;;;25.22;41.25
48035;BME280;33812;46.480;6.834;2023-06-26T19:54:57;94047.22;;;25.23;41.19
48035;BME280;33812;46.480;6.834;2023-06-26T19:58:59;94054.31;;;25.24;41.68
48035;BME280;33812;46.480;6.834;2023-06-26T20:03:00;94058.66;;;25.25;41.64
48035;BME280;33812;46.480;6.834;2023-06-26T20:07:04;94058.66;;;25.25;41.37
48035;BME280;33812;46.480;6.834;2023-06-26T20:11:06;94064.22;;;25.25;41.15
48035;BME280;33812;46.480;6.834;2023-06-26T20:15:09;94063.44;;;25.25;41.43
48035;BME280;33812;46.480;6.834;2023-06-26T20:19:11;94069.00;;;25.25;41.13
48035;BME280;33812;46.480;6.834;2023-06-26T20:23:14;94069.78;;;25.25;41.08
48035;BME280;33812;46.480;6.834;2023-06-26T20:27:16;94073.78;;;25.24;40.71
48035;BME280;33812;46.480;6.834;2023-06-26T20:31:18;94078.13;;;25.25;41.79
48035;BME280;33812;46.480;6.834;2023-06-26T20:35:20;94071.00;;;25.24;41.80
48035;BME280;33812;46.480;6.834;2023-06-26T20:39:24;94069.78;;;25.25;41.93
48035;BME280;33812;46.480;6.834;2023-06-26T20:43:27;94075.34;;;25.25;42.38
48035;BME280;33812;46.480;6.834;2023-06-26T20:47:29;94083.69;;;25.25;42.14
48035;BME280;33812;46.480;6.834;2023-06-26T20:51:34;94082.44;;;25.26;42.31
48035;BME280;33812;46.480;6.834;2023-06-26T20:55:38;94080.91;;;25.25;42.13
48035;BME280;33812;46.480;6.834;2023-06-26T20:59:40;94073.31;;;25.26;42.31
48035;BME280;33812;46.480;6.834;2023-06-26T21:03:42;94074.09;;;25.26;41.89
48035;BME280;33812;46.480;6.834;2023-06-26T21:07:44;94071.31;;;25.26;42.13
48035;BME280;33812;46.480;6.834;2023-06-26T21:11:47;94076.88;;;25.26;41.75
48035;BME280;33812;46.480;6.834;2023-06-26T21:15:48;94084.44;;;25.26;41.82
48035;BME280;33812;46.480;6.834;2023-06-26T21:19:50;94078.13;;;25.25;41.92
48035;BME280;33812;46.480;6.834;2023-06-26T21:23:52;94081.34;;;25.23;41.80
48035;BME280;33812;46.480;6.834;2023-06-26T21:27:55;94086.91;;;25.23;41.81
48035;BME280;33812;46.480;6.834;2023-06-26T21:31:57;94090.00;;;25.26;41.63